createdAt,value
2018-06-14T00:01:45.955Z,15.60
2018-06-14T00:06:42.049Z,15.60
2018-06-14T00:09:10.810Z,15.70
2018-06-14T00:11:39.124Z,15.70
2018-06-14T00:14:07.461Z,15.70
2018-06-14T00:16:35.628Z,15.80
2018-06-14T00:21:31.822Z,15.80
2018-06-14T00:24:00.022Z,15.80
2018-06-14T00:26:28.198Z,15.80
2018-06-14T00:28:56.668Z,15.70
2018-06-14T00:31:24.871Z,15.80
2018-06-14T00:33:53.013Z,15.80
2018-06-14T00:36:21.403Z,15.80
2018-06-14T00:38:49.597Z,15.70
2018-06-14T00:41:17.838Z,15.70
2018-06-14T00:43:46.177Z,15.70
2018-06-14T00:46:14.423Z,15.70
2018-06-14T00:48:43.268Z,15.60
2018-06-14T00:51:11.498Z,15.70
2018-06-14T00:53:39.817Z,15.60
2018-06-14T00:56:08.053Z,15.70
2018-06-14T00:58:36.279Z,15.60
2018-06-14T01:01:04.886Z,15.60
2018-06-14T01:03:33.069Z,15.60
2018-06-14T01:06:01.308Z,15.70
2018-06-14T01:08:29.557Z,15.70
2018-06-14T01:10:57.862Z,15.60
2018-06-14T01:13:26.572Z,15.60
2018-06-14T01:15:54.859Z,15.60
2018-06-14T01:18:23.081Z,15.60
2018-06-14T01:20:51.216Z,15.60
2018-06-14T01:23:19.386Z,15.60
2018-06-14T01:25:47.576Z,15.60
2018-06-14T01:30:43.667Z,15.60
2018-06-14T01:33:11.800Z,15.60
2018-06-14T01:38:18.688Z,15.50
2018-06-14T01:43:15.631Z,15.60
2018-06-14T01:45:43.790Z,15.60
2018-06-14T01:48:12.082Z,15.60
2018-06-14T01:50:40.263Z,15.60
2018-06-14T01:53:08.426Z,15.60
2018-06-14T01:55:36.594Z,15.60
2018-06-14T01:58:04.953Z,15.50
2018-06-14T02:00:33.036Z,15.60
2018-06-14T02:03:01.872Z,15.60
2018-06-14T02:05:30.025Z,15.60
2018-06-14T02:07:58.296Z,15.60
2018-06-14T02:10:26.712Z,15.60
2018-06-14T02:12:54.832Z,15.60
2018-06-14T02:15:22.976Z,15.60
2018-06-14T02:17:51.143Z,15.60
2018-06-14T02:20:19.353Z,15.60
2018-06-14T02:22:47.521Z,15.70
2018-06-14T02:25:15.722Z,15.70
2018-06-14T02:27:43.893Z,15.70
2018-06-14T02:30:12.086Z,15.70
2018-06-14T02:32:40.271Z,15.60
2018-06-14T02:37:41.224Z,15.70
2018-06-14T02:40:11.157Z,15.70
2018-06-14T02:42:39.479Z,15.60
2018-06-14T02:45:07.591Z,15.60
2018-06-14T02:47:35.757Z,15.80
2018-06-14T02:50:04.147Z,15.70
2018-06-14T02:52:32.359Z,15.70
2018-06-14T02:55:00.485Z,15.70
2018-06-14T02:57:28.814Z,15.70
2018-06-14T02:59:57.131Z,15.50
2018-06-14T03:02:25.235Z,15.50
2018-06-14T03:04:53.361Z,15.60
2018-06-14T03:07:26.996Z,15.50
2018-06-14T03:09:55.162Z,15.60
2018-06-14T03:12:23.405Z,15.60
2018-06-14T03:14:51.733Z,15.50
2018-06-14T03:17:20.976Z,15.50
2018-06-14T03:19:50.331Z,15.50
2018-06-14T03:22:18.644Z,15.40
2018-06-14T03:24:46.833Z,15.40
2018-06-14T03:27:15.067Z,15.40
2018-06-14T03:29:43.189Z,15.40
2018-06-14T03:32:11.342Z,15.40
2018-06-14T03:34:39.488Z,15.40
2018-06-14T03:37:07.715Z,15.40
2018-06-14T03:39:35.860Z,15.50
2018-06-14T03:42:06.358Z,15.40
2018-06-14T03:47:04.893Z,15.40
2018-06-14T03:49:33.182Z,15.40
2018-06-14T03:52:01.455Z,15.40
2018-06-14T03:54:29.566Z,15.50
2018-06-14T03:56:57.759Z,15.50
2018-06-14T03:59:25.915Z,15.40
2018-06-14T04:01:54.040Z,15.40
2018-06-14T04:04:22.271Z,15.40
2018-06-14T04:06:50.626Z,15.40
2018-06-14T04:09:18.821Z,15.40
2018-06-14T04:11:46.961Z,15.40
2018-06-14T04:14:15.691Z,15.50
2018-06-14T04:16:47.364Z,15.40
2018-06-14T04:19:16.292Z,15.40
2018-06-14T04:21:44.685Z,15.40
2018-06-14T04:24:13.044Z,15.40
2018-06-14T04:26:41.507Z,15.50
2018-06-14T04:29:10.014Z,15.50
2018-06-14T04:31:41.279Z,15.60
2018-06-14T04:34:09.654Z,15.60
2018-06-14T04:36:38.822Z,15.60
2018-06-14T04:39:08.790Z,15.60
2018-06-14T04:41:37.333Z,15.70
2018-06-14T04:44:06.204Z,15.70
2018-06-14T04:46:35.321Z,15.70
2018-06-14T04:49:03.809Z,15.80
2018-06-14T04:51:38.462Z,15.80
2018-06-14T04:54:06.690Z,15.90
2018-06-14T04:56:34.881Z,15.90
2018-06-14T04:59:03.060Z,16.00
2018-06-14T05:01:31.349Z,16.10
2018-06-14T05:04:00.428Z,16.10
2018-06-14T05:08:56.559Z,16.00
2018-06-14T05:11:25.694Z,16.10
2018-06-14T05:13:53.865Z,16.00
2018-06-14T05:16:22.074Z,16.00
2018-06-14T05:18:50.214Z,16.00
2018-06-14T05:21:18.393Z,16.10
2018-06-14T05:23:46.566Z,16.20
2018-06-14T05:26:14.737Z,16.20
2018-06-14T05:28:42.891Z,16.30
2018-06-14T05:31:11.060Z,16.30
2018-06-14T05:33:39.247Z,16.30
2018-06-14T05:36:07.399Z,16.40
2018-06-14T05:38:35.541Z,16.40
2018-06-14T05:46:00.248Z,16.50
2018-06-14T05:48:28.386Z,16.50
2018-06-14T05:50:56.499Z,16.50
2018-06-14T05:53:24.649Z,16.60
2018-06-14T05:55:52.792Z,16.50
2018-06-14T05:58:20.913Z,16.50
2018-06-14T06:00:49.111Z,16.60
2018-06-14T06:03:17.235Z,16.60
2018-06-14T06:05:45.402Z,16.70
2018-06-14T06:08:13.530Z,16.70
2018-06-14T06:13:09.660Z,16.80
2018-06-14T06:15:37.830Z,16.80
2018-06-14T06:18:05.949Z,16.90
2018-06-14T06:20:34.085Z,17.00
2018-06-14T06:25:30.157Z,16.80
2018-06-14T06:27:58.370Z,17.00
2018-06-14T06:30:26.523Z,17.10
2018-06-14T06:32:54.709Z,17.10
2018-06-14T06:35:22.953Z,17.20
2018-06-14T06:37:51.515Z,17.30
2018-06-14T06:40:19.672Z,17.30
2018-06-14T06:42:47.862Z,17.30
2018-06-14T06:45:16.025Z,17.30
2018-06-14T06:47:45.889Z,17.50
2018-06-14T06:50:14.103Z,17.60
2018-06-14T06:52:42.243Z,17.70
2018-06-14T06:55:10.473Z,17.80
2018-06-14T06:57:38.683Z,17.90
2018-06-14T07:00:06.921Z,18.10
2018-06-14T07:02:35.440Z,18.20
2018-06-14T07:05:03.567Z,18.40
2018-06-14T07:07:31.672Z,18.30
2018-06-14T07:09:59.842Z,18.40
2018-06-14T07:12:27.994Z,18.60
2018-06-14T07:14:56.087Z,18.70
2018-06-14T07:17:24.239Z,18.70
2018-06-14T07:19:52.388Z,18.70
2018-06-14T07:22:20.534Z,18.70
2018-06-14T07:24:48.700Z,18.90
2018-06-14T07:27:17.538Z,19.00
2018-06-14T07:29:45.657Z,19.10
2018-06-14T07:32:13.814Z,19.20
2018-06-14T07:34:41.958Z,19.30
2018-06-14T07:37:10.115Z,19.10
2018-06-14T07:39:38.238Z,19.30
2018-06-14T07:42:06.481Z,19.30
2018-06-14T07:44:34.645Z,19.30
2018-06-14T07:47:02.790Z,19.30
2018-06-14T07:49:30.901Z,19.30
2018-06-14T07:51:59.015Z,19.30
2018-06-14T07:54:27.121Z,19.10
2018-06-14T07:56:55.252Z,19.00
2018-06-14T07:59:23.392Z,19.20
2018-06-14T08:01:51.544Z,19.20
2018-06-14T08:04:19.697Z,19.20
2018-06-14T08:06:47.875Z,19.10
2018-06-14T08:09:16.032Z,19.20
2018-06-14T08:11:44.150Z,19.10
2018-06-14T08:14:12.256Z,19.20
2018-06-14T08:16:40.449Z,19.40
2018-06-14T08:19:08.616Z,19.50
2018-06-14T08:21:37.556Z,19.70
2018-06-14T08:24:05.696Z,19.80
2018-06-14T08:26:33.875Z,19.90
2018-06-14T08:29:02.162Z,20.00
2018-06-14T08:31:30.370Z,20.00
2018-06-14T08:33:58.480Z,19.90
2018-06-14T08:36:26.638Z,19.90
2018-06-14T08:38:54.805Z,20.00
2018-06-14T08:41:22.936Z,20.00
2018-06-14T08:43:51.104Z,20.10
2018-06-14T08:46:19.229Z,20.50
2018-06-14T08:48:47.355Z,20.60
2018-06-14T08:51:15.533Z,20.80
2018-06-14T08:53:43.673Z,21.10
2018-06-14T08:56:11.886Z,21.10
2018-06-14T08:58:40.402Z,20.60
2018-06-14T09:01:08.572Z,20.60
2018-06-14T09:03:36.666Z,20.60
2018-06-14T09:06:04.894Z,20.90
2018-06-14T09:08:33.113Z,20.90
2018-06-14T09:11:01.276Z,20.80
2018-06-14T09:13:29.438Z,21.00
2018-06-14T09:15:57.598Z,21.10
2018-06-14T09:18:25.745Z,21.10
2018-06-14T09:20:53.865Z,21.20
2018-06-14T09:23:22.020Z,21.00
2018-06-14T09:25:50.135Z,21.20
2018-06-14T09:28:18.272Z,21.30
2018-06-14T09:30:46.569Z,22.00
2018-06-14T09:33:15.293Z,22.10
2018-06-14T09:35:43.459Z,22.20
2018-06-14T09:38:11.933Z,22.50
2018-06-14T09:40:40.206Z,22.50
2018-06-14T09:45:36.283Z,22.20
2018-06-14T09:48:04.469Z,22.50
2018-06-14T09:50:32.625Z,22.70
2018-06-14T09:53:00.756Z,22.90
2018-06-14T09:57:56.792Z,22.70
2018-06-14T10:00:24.956Z,22.80
2018-06-14T10:02:53.043Z,23.30
2018-06-14T10:05:21.314Z,23.20
2018-06-14T10:07:49.469Z,23.20
2018-06-14T10:10:17.604Z,23.20
2018-06-14T10:12:45.824Z,22.90
2018-06-14T10:15:13.944Z,23.00
2018-06-14T10:17:42.150Z,22.60
2018-06-14T10:20:10.343Z,22.50
2018-06-14T10:22:38.506Z,22.90
2018-06-14T10:25:06.614Z,22.90
2018-06-14T10:27:34.728Z,23.00
2018-06-14T10:30:02.921Z,23.20
2018-06-14T10:32:31.031Z,23.30
2018-06-14T10:34:59.201Z,23.10
2018-06-14T10:37:27.345Z,22.30
2018-06-14T10:39:55.471Z,22.20
2018-06-14T10:42:23.593Z,22.20
2018-06-14T10:44:51.746Z,22.30
2018-06-14T10:47:19.883Z,22.30
2018-06-14T10:49:47.992Z,22.30
2018-06-14T10:52:16.283Z,21.80
2018-06-14T10:54:44.419Z,22.00
2018-06-14T10:57:12.562Z,21.80
2018-06-14T10:59:40.741Z,21.50
2018-06-14T11:02:08.975Z,21.70
2018-06-14T11:04:37.226Z,21.50
2018-06-14T11:07:05.378Z,21.40
2018-06-14T11:12:01.446Z,20.80
2018-06-14T11:14:29.653Z,20.90
2018-06-14T11:16:57.784Z,20.90
2018-06-14T11:19:25.908Z,21.00
2018-06-14T11:21:54.067Z,20.30
2018-06-14T11:24:22.142Z,20.40
2018-06-14T11:26:50.274Z,20.60
2018-06-14T11:29:18.410Z,20.50
2018-06-14T11:31:46.562Z,20.50
2018-06-14T11:34:14.658Z,20.70
2018-06-14T11:36:42.768Z,20.60
2018-06-14T11:39:10.915Z,20.50
2018-06-14T11:41:39.013Z,20.50
2018-06-14T11:49:02.930Z,20.00
2018-06-14T11:51:31.068Z,19.90
2018-06-14T11:53:59.200Z,19.80
2018-06-14T11:56:27.310Z,19.70
2018-06-14T11:58:55.399Z,19.70
2018-06-14T12:01:23.500Z,19.70
2018-06-14T12:03:51.967Z,19.80
2018-06-14T12:06:20.095Z,19.70
2018-06-14T12:08:48.257Z,19.60
2018-06-14T12:11:16.385Z,19.50
2018-06-14T12:13:44.463Z,19.60
2018-06-14T12:16:12.581Z,19.60
2018-06-14T12:18:40.753Z,19.70
2018-06-14T12:21:08.874Z,19.70
2018-06-14T12:23:36.973Z,19.70
2018-06-14T12:26:05.338Z,19.60
2018-06-14T12:28:33.444Z,19.70
2018-06-14T12:31:01.561Z,19.60
2018-06-14T12:33:29.733Z,19.50
2018-06-14T12:35:57.845Z,19.40
2018-06-14T12:38:25.923Z,19.40
2018-06-14T12:40:54.072Z,19.50
2018-06-14T12:43:22.160Z,19.50
2018-06-14T12:45:50.285Z,19.40
2018-06-14T12:48:18.453Z,19.70
2018-06-14T12:50:46.647Z,19.70
2018-06-14T12:53:14.875Z,19.80
2018-06-14T12:55:43.043Z,19.60
2018-06-14T12:58:11.272Z,19.70
2018-06-14T13:00:39.453Z,19.70
2018-06-14T13:03:07.586Z,19.80
2018-06-14T13:05:35.709Z,19.90
2018-06-14T13:08:03.882Z,19.90
2018-06-14T13:10:31.990Z,20.00
2018-06-14T13:13:00.166Z,20.00
2018-06-14T13:15:28.377Z,20.30
2018-06-14T13:17:56.542Z,20.30
2018-06-14T13:20:24.758Z,20.40
2018-06-14T13:22:52.913Z,20.50
2018-06-14T13:25:21.102Z,20.20
2018-06-14T13:27:49.227Z,20.40
2018-06-14T13:30:17.403Z,20.40
2018-06-14T13:32:45.580Z,20.50
2018-06-14T13:35:13.697Z,20.60
2018-06-14T13:37:41.865Z,20.50
2018-06-14T13:42:38.053Z,20.40
2018-06-14T13:45:06.161Z,20.40
2018-06-14T13:47:34.306Z,20.20
2018-06-14T13:50:02.435Z,20.00
2018-06-14T13:54:58.489Z,20.10
2018-06-14T13:57:26.668Z,20.20
2018-06-14T13:59:54.809Z,19.90
2018-06-14T14:02:22.945Z,20.10
2018-06-14T14:04:51.187Z,20.00
2018-06-14T14:07:24.692Z,20.20
2018-06-14T14:09:52.816Z,20.00
2018-06-14T14:12:20.937Z,19.90
2018-06-14T14:14:49.027Z,20.00
2018-06-14T14:17:17.253Z,20.00
2018-06-14T14:19:45.414Z,20.00
2018-06-14T14:22:13.586Z,20.10
2018-06-14T14:24:41.789Z,20.20
2018-06-14T14:27:10.033Z,20.30
2018-06-14T14:29:38.146Z,20.10
2018-06-14T14:34:34.162Z,20.20
2018-06-14T14:37:02.297Z,20.20
2018-06-14T14:39:30.489Z,20.10
2018-06-14T14:41:58.844Z,20.00
2018-06-14T14:44:27.017Z,20.10
2018-06-14T14:46:55.172Z,20.10
2018-06-14T14:49:23.357Z,20.10
2018-06-14T14:51:51.474Z,19.80
2018-06-14T14:54:19.564Z,19.90
2018-06-14T14:56:47.662Z,19.90
2018-06-14T14:59:15.834Z,19.70
2018-06-14T15:01:44.069Z,19.90
2018-06-14T15:04:12.165Z,19.90
2018-06-14T15:09:09.003Z,19.90
2018-06-14T15:11:37.085Z,20.00
2018-06-14T15:14:05.326Z,20.20
2018-06-14T15:16:33.428Z,20.00
2018-06-14T15:19:01.565Z,19.90
2018-06-14T15:21:29.713Z,19.90
2018-06-14T15:23:57.823Z,19.80
2018-06-14T15:26:25.965Z,19.70
2018-06-14T15:28:54.064Z,19.80
2018-06-14T15:31:22.231Z,19.80
2018-06-14T15:33:50.339Z,19.80
2018-06-14T15:36:18.433Z,19.90
2018-06-14T15:38:47.460Z,19.90
2018-06-14T15:41:15.601Z,19.80
2018-06-14T15:43:43.701Z,19.70
2018-06-14T15:46:11.842Z,19.60
2018-06-14T15:48:40.002Z,19.70
2018-06-14T15:51:08.084Z,19.70
2018-06-14T15:53:36.243Z,19.70
2018-06-14T15:56:47.490Z,19.70
2018-06-14T15:59:16.248Z,19.60
2018-06-14T16:01:44.348Z,19.70
2018-06-14T16:04:12.513Z,19.70
2018-06-14T16:06:40.692Z,19.80
2018-06-14T16:09:09.889Z,19.90
2018-06-14T16:11:38.002Z,19.90
2018-06-14T16:14:06.501Z,19.70
2018-06-14T16:16:34.614Z,19.70
2018-06-14T16:19:03.660Z,19.80
2018-06-14T16:21:31.797Z,19.70
2018-06-14T16:23:59.929Z,19.70
2018-06-14T16:26:28.088Z,19.70
2018-06-14T16:28:56.160Z,19.70
2018-06-14T16:31:24.260Z,19.70
2018-06-14T16:33:52.489Z,19.60
2018-06-14T16:36:20.622Z,19.70
2018-06-14T16:38:48.772Z,19.60
2018-06-14T16:41:16.887Z,19.60
2018-06-14T16:43:45.025Z,19.50
2018-06-14T16:46:13.232Z,19.50
2018-06-14T16:48:41.316Z,19.50
2018-06-14T16:51:09.511Z,19.50
2018-06-14T16:53:37.605Z,19.50
2018-06-14T16:56:05.994Z,19.30
2018-06-14T16:58:35.202Z,19.30
2018-06-14T17:01:04.759Z,19.40
2018-06-14T17:03:33.030Z,19.40
2018-06-14T17:06:01.204Z,19.30
2018-06-14T17:08:29.670Z,19.30
2018-06-14T17:10:57.885Z,19.30
2018-06-14T17:13:26.028Z,19.30
2018-06-14T17:15:54.233Z,19.20
2018-06-14T17:18:22.391Z,19.20
2018-06-14T17:20:50.542Z,19.20
2018-06-14T17:23:18.658Z,19.20
2018-06-14T17:25:46.796Z,19.20
2018-06-14T17:28:14.920Z,19.20
2018-06-14T17:30:49.676Z,19.20
2018-06-14T17:33:18.798Z,19.20
2018-06-14T17:35:46.935Z,19.20
2018-06-14T17:38:16.764Z,19.20
2018-06-14T17:40:45.704Z,19.10
2018-06-14T17:43:14.172Z,19.10
2018-06-14T17:45:42.610Z,19.00
2018-06-14T17:48:12.309Z,19.00
2018-06-14T17:50:44.082Z,19.00
2018-06-14T17:53:13.022Z,18.90
2018-06-14T17:55:41.188Z,18.90
2018-06-14T17:58:09.365Z,18.90
2018-06-14T18:00:37.567Z,18.80
2018-06-14T18:03:05.702Z,18.80
2018-06-14T18:05:33.901Z,18.80
2018-06-14T18:08:01.992Z,18.80
2018-06-14T18:10:30.217Z,18.70
2018-06-14T18:12:58.294Z,18.70
2018-06-14T18:15:26.447Z,18.60
2018-06-14T18:17:54.634Z,18.70
2018-06-14T18:20:22.751Z,18.60
2018-06-14T18:22:50.999Z,18.60
2018-06-14T18:25:19.269Z,18.60
2018-06-14T18:27:47.424Z,18.60
2018-06-14T18:30:15.565Z,18.60
2018-06-14T18:32:44.302Z,18.50
2018-06-14T18:35:12.447Z,18.50
2018-06-14T18:37:40.580Z,18.40
2018-06-14T18:40:08.695Z,18.40
2018-06-14T18:42:36.923Z,18.40
2018-06-14T18:45:05.340Z,18.30
2018-06-14T18:47:33.469Z,18.30
2018-06-14T18:50:01.635Z,18.30
2018-06-14T18:52:29.914Z,18.30
2018-06-14T18:54:58.104Z,18.20
2018-06-14T18:57:26.319Z,18.20
2018-06-14T18:59:54.507Z,18.20
2018-06-14T19:02:22.665Z,18.20
2018-06-14T19:04:51.602Z,18.10
2018-06-14T19:07:19.803Z,18.10
2018-06-14T19:09:48.066Z,18.10
2018-06-14T19:12:16.224Z,18.20
2018-06-14T19:14:44.340Z,18.20
2018-06-14T19:17:12.605Z,18.10
2018-06-14T19:19:40.771Z,18.10
2018-06-14T19:22:09.130Z,18.00
2018-06-14T19:24:37.884Z,18.00
2018-06-14T19:27:06.093Z,17.90
2018-06-14T19:29:34.258Z,17.90
2018-06-14T19:32:02.437Z,17.90
2018-06-14T19:34:30.547Z,17.90
2018-06-14T19:36:58.704Z,17.90
2018-06-14T19:39:26.797Z,17.90
2018-06-14T19:44:22.832Z,17.80
2018-06-14T19:46:51.047Z,17.80
2018-06-14T19:49:23.693Z,17.80
2018-06-14T19:51:52.193Z,17.80
2018-06-14T19:54:20.310Z,17.70
2018-06-14T19:56:48.523Z,17.80
2018-06-14T19:59:16.671Z,17.60
2018-06-14T20:01:44.792Z,17.60
2018-06-14T20:04:12.938Z,17.60
2018-06-14T20:06:41.213Z,17.60
2018-06-14T20:09:09.817Z,17.60
2018-06-14T20:11:38.477Z,17.60
2018-06-14T20:14:06.593Z,17.60
2018-06-14T20:19:02.551Z,17.60
2018-06-14T20:21:30.666Z,17.60
2018-06-14T20:23:58.796Z,17.60
2018-06-14T20:26:26.888Z,17.60
2018-06-14T20:29:01.509Z,17.60
2018-06-14T20:31:29.563Z,17.60
2018-06-14T20:33:57.725Z,17.50
2018-06-14T20:36:25.806Z,17.60
2018-06-14T20:38:53.967Z,17.60
2018-06-14T20:41:22.125Z,17.50
2018-06-14T20:46:18.117Z,17.50
2018-06-14T20:48:46.340Z,17.50
2018-06-14T20:51:14.426Z,17.50
2018-06-14T20:53:42.501Z,17.50
2018-06-14T20:56:10.630Z,17.50
2018-06-14T20:58:38.756Z,17.40
2018-06-14T21:01:06.870Z,17.40
2018-06-14T21:03:34.998Z,17.40
2018-06-14T21:06:03.102Z,17.40
2018-06-14T21:08:31.185Z,17.30
2018-06-14T21:10:59.235Z,17.30
2018-06-14T21:13:27.314Z,17.30
2018-06-14T21:15:55.405Z,17.30
2018-06-14T21:18:23.523Z,17.30
2018-06-14T21:20:51.636Z,17.20
2018-06-14T21:23:19.694Z,17.20
2018-06-14T21:25:47.837Z,17.20
2018-06-14T21:28:16.423Z,17.20
2018-06-14T21:30:44.542Z,17.20
2018-06-14T21:33:12.606Z,17.20
2018-06-14T21:35:40.676Z,17.20
2018-06-14T21:38:08.780Z,17.20
2018-06-14T21:40:36.811Z,17.20
2018-06-14T21:43:04.890Z,17.20
2018-06-14T21:45:32.983Z,17.20
2018-06-14T21:48:01.117Z,17.20
2018-06-14T21:50:29.183Z,17.20
2018-06-14T21:52:57.313Z,17.20
2018-06-14T21:55:25.407Z,17.20
2018-06-14T21:57:53.539Z,17.20
2018-06-14T22:00:22.970Z,17.20
2018-06-14T22:02:56.540Z,17.20
2018-06-14T22:05:24.712Z,17.20
2018-06-14T22:07:53.019Z,17.20
2018-06-14T22:10:21.098Z,17.20
2018-06-14T22:12:49.222Z,17.10
2018-06-14T22:15:17.314Z,17.10
2018-06-14T22:17:45.433Z,17.10
2018-06-14T22:20:13.526Z,17.10
2018-06-14T22:22:41.668Z,17.10
2018-06-14T22:30:05.571Z,16.90
2018-06-14T22:32:33.831Z,16.90
2018-06-14T22:35:22.734Z,16.90
2018-06-14T22:37:50.886Z,16.80
2018-06-14T22:40:18.933Z,16.80
2018-06-14T22:42:47.078Z,16.70
2018-06-14T22:45:15.142Z,16.70
2018-06-14T22:47:43.320Z,16.70
2018-06-14T22:50:11.482Z,16.60
2018-06-14T22:52:49.756Z,16.60
2018-06-14T22:55:18.883Z,16.60
2018-06-14T22:57:47.221Z,16.60
2018-06-14T23:00:26.538Z,16.60
2018-06-14T23:02:54.663Z,16.60
2018-06-14T23:05:22.750Z,16.60
2018-06-14T23:07:51.330Z,16.60
2018-06-14T23:10:32.612Z,16.60
2018-06-14T23:13:00.792Z,16.60
2018-06-14T23:15:28.849Z,16.70
2018-06-14T23:17:57.041Z,16.60
2018-06-14T23:20:26.196Z,16.60
2018-06-14T23:22:55.485Z,16.60
2018-06-14T23:25:24.522Z,16.60
2018-06-14T23:27:52.654Z,16.70
2018-06-14T23:30:20.727Z,16.70
2018-06-14T23:32:49.018Z,16.70
2018-06-14T23:35:17.603Z,16.70
2018-06-14T23:37:45.968Z,16.70
2018-06-14T23:40:14.052Z,16.80
2018-06-14T23:42:43.180Z,16.80
2018-06-14T23:45:11.271Z,16.80
2018-06-14T23:47:39.385Z,16.80
2018-06-14T23:50:07.449Z,16.80
2018-06-14T23:52:35.520Z,16.90
2018-06-14T23:55:03.709Z,16.90
2018-06-14T23:57:32.122Z,16.80
